createdAt,value
2019-03-13T00:01:26.672Z,6.90
2019-03-13T00:03:59.417Z,6.90
2019-03-13T00:06:32.162Z,6.90
2019-03-13T00:09:07.638Z,6.90
2019-03-13T00:11:40.597Z,6.90
2019-03-13T00:14:13.250Z,6.90
2019-03-13T00:16:45.884Z,6.80
2019-03-13T00:19:18.522Z,6.70
2019-03-13T00:21:51.166Z,6.70
2019-03-13T00:24:23.818Z,6.70
2019-03-13T00:26:56.459Z,6.70
2019-03-13T00:29:29.102Z,6.70
2019-03-13T00:32:01.730Z,6.70
2019-03-13T00:34:34.825Z,6.60
2019-03-13T00:37:07.479Z,6.60
2019-03-13T00:39:40.120Z,6.60
2019-03-13T00:42:12.771Z,6.60
2019-03-13T00:44:45.431Z,6.50
2019-03-13T00:47:18.072Z,6.50
2019-03-13T00:49:50.744Z,6.50
2019-03-13T00:52:23.382Z,6.50
2019-03-13T00:54:56.057Z,6.50
2019-03-13T00:57:28.669Z,6.50
2019-03-13T01:00:01.329Z,6.50
2019-03-13T01:02:33.960Z,6.60
2019-03-13T01:05:07.389Z,6.60
2019-03-13T01:07:40.043Z,6.60
2019-03-13T01:10:12.681Z,6.70
2019-03-13T01:12:45.327Z,6.80
2019-03-13T01:15:17.967Z,6.80
2019-03-13T01:17:50.597Z,6.90
2019-03-13T01:20:23.269Z,6.90
2019-03-13T01:22:55.895Z,6.80
2019-03-13T01:25:28.562Z,6.70
2019-03-13T01:28:01.207Z,6.60
2019-03-13T01:30:33.862Z,6.60
2019-03-13T01:33:06.562Z,6.60
2019-03-13T01:35:39.210Z,6.60
2019-03-13T01:38:11.842Z,6.60
2019-03-13T01:40:44.501Z,6.60
2019-03-13T01:43:17.191Z,6.60
2019-03-13T01:45:49.863Z,6.60
2019-03-13T01:48:22.497Z,6.60
2019-03-13T01:50:55.402Z,6.70
2019-03-13T01:53:28.119Z,6.70
2019-03-13T01:56:00.765Z,6.80
2019-03-13T01:58:33.403Z,6.80
2019-03-13T02:01:06.049Z,6.90
2019-03-13T02:03:38.698Z,6.90
2019-03-13T02:06:11.358Z,6.90
2019-03-13T02:08:43.991Z,6.90
2019-03-13T02:11:16.641Z,6.80
2019-03-13T02:13:49.346Z,6.80
2019-03-13T02:16:22.010Z,6.70
2019-03-13T02:18:54.648Z,6.60
2019-03-13T02:21:27.314Z,6.60
2019-03-13T02:23:59.945Z,6.50
2019-03-13T02:26:32.609Z,6.60
2019-03-13T02:29:05.261Z,6.60
2019-03-13T02:31:37.939Z,6.60
2019-03-13T02:34:10.634Z,6.60
2019-03-13T02:36:43.496Z,6.60
2019-03-13T02:39:16.166Z,6.60
2019-03-13T02:41:48.811Z,6.60
2019-03-13T02:44:21.547Z,6.50
2019-03-13T02:46:54.196Z,6.60
2019-03-13T02:49:26.883Z,6.60
2019-03-13T02:51:59.646Z,6.70
2019-03-13T02:54:32.392Z,6.80
2019-03-13T02:57:05.019Z,6.80
2019-03-13T02:59:37.662Z,6.80
2019-03-13T03:02:10.374Z,6.80
2019-03-13T03:04:43.060Z,6.90
2019-03-13T03:07:15.751Z,7.00
2019-03-13T03:09:48.375Z,7.00
2019-03-13T03:12:21.042Z,7.00
2019-03-13T03:15:01.451Z,7.10
2019-03-13T03:17:34.181Z,7.20
2019-03-13T03:20:09.279Z,7.20
2019-03-13T03:22:41.934Z,7.20
2019-03-13T03:25:14.612Z,7.10
2019-03-13T03:27:47.258Z,7.20
2019-03-13T03:30:20.538Z,7.20
2019-03-13T03:32:53.243Z,7.20
2019-03-13T03:35:25.891Z,7.10
2019-03-13T03:37:58.545Z,7.00
2019-03-13T03:40:31.179Z,6.90
2019-03-13T03:43:03.830Z,6.80
2019-03-13T03:45:36.454Z,6.80
2019-03-13T03:48:09.252Z,6.70
2019-03-13T03:50:41.865Z,6.70
2019-03-13T03:53:14.569Z,6.70
2019-03-13T03:55:47.314Z,6.80
2019-03-13T03:58:20.006Z,6.80
2019-03-13T04:00:52.694Z,6.80
2019-03-13T04:03:25.367Z,6.80
2019-03-13T04:05:58.034Z,6.90
2019-03-13T04:08:30.712Z,6.90
2019-03-13T04:11:03.448Z,6.90
2019-03-13T04:13:36.199Z,7.00
2019-03-13T04:16:08.828Z,7.00
2019-03-13T04:18:41.494Z,7.00
2019-03-13T04:21:14.124Z,7.10
2019-03-13T04:23:46.779Z,7.30
2019-03-13T04:26:19.665Z,7.30
2019-03-13T04:28:52.326Z,7.40
2019-03-13T04:31:24.980Z,7.40
2019-03-13T04:33:57.668Z,7.40
2019-03-13T04:36:30.406Z,7.40
2019-03-13T04:39:03.246Z,7.40
2019-03-13T04:41:35.882Z,7.40
2019-03-13T04:44:08.761Z,7.40
2019-03-13T04:46:41.418Z,7.40
2019-03-13T04:49:14.067Z,7.30
2019-03-13T04:51:46.737Z,7.20
2019-03-13T04:54:19.383Z,7.20
2019-03-13T04:56:52.035Z,7.20
2019-03-13T04:59:24.690Z,7.20
2019-03-13T05:01:57.373Z,7.20
2019-03-13T05:04:30.014Z,7.10
2019-03-13T05:07:02.660Z,7.00
2019-03-13T05:09:39.207Z,6.90
2019-03-13T05:12:11.840Z,6.90
2019-03-13T05:14:44.486Z,6.90
2019-03-13T05:17:17.131Z,6.80
2019-03-13T05:19:49.801Z,6.70
2019-03-13T05:22:22.455Z,6.70
2019-03-13T05:24:55.105Z,6.70
2019-03-13T05:27:27.735Z,6.80
2019-03-13T05:30:00.424Z,6.80
2019-03-13T05:32:33.098Z,6.80
2019-03-13T05:35:06.223Z,6.90
2019-03-13T05:37:38.911Z,6.90
2019-03-13T05:40:11.579Z,7.00
2019-03-13T05:42:44.232Z,7.00
2019-03-13T05:45:16.883Z,7.20
2019-03-13T05:47:49.518Z,7.20
2019-03-13T05:50:22.211Z,7.20
2019-03-13T05:52:54.851Z,7.30
2019-03-13T05:55:27.522Z,7.30
2019-03-13T05:58:19.483Z,7.30
2019-03-13T06:00:52.126Z,7.20
2019-03-13T06:03:24.887Z,7.20
2019-03-13T06:05:57.561Z,7.30
2019-03-13T06:08:30.215Z,7.30
2019-03-13T06:11:02.899Z,7.30
2019-03-13T06:13:35.571Z,7.30
2019-03-13T06:16:08.210Z,7.30
2019-03-13T06:18:40.858Z,7.30
2019-03-13T06:21:13.507Z,7.30
2019-03-13T06:23:48.038Z,7.30
2019-03-13T06:26:20.510Z,7.30
2019-03-13T06:28:53.158Z,7.40
2019-03-13T06:31:25.802Z,7.40
2019-03-13T06:33:58.460Z,7.40
2019-03-13T06:36:31.211Z,7.40
2019-03-13T06:39:05.698Z,7.50
2019-03-13T06:41:38.355Z,7.60
2019-03-13T06:44:11.029Z,7.70
2019-03-13T06:46:43.694Z,7.80
2019-03-13T06:49:16.472Z,8.00
2019-03-13T06:51:49.649Z,8.00
2019-03-13T06:54:22.811Z,8.10
2019-03-13T06:56:56.675Z,8.10
2019-03-13T06:59:30.413Z,8.10
2019-03-13T07:02:04.205Z,8.00
2019-03-13T07:04:38.023Z,8.00
2019-03-13T07:07:12.438Z,8.10
2019-03-13T07:09:46.160Z,8.10
2019-03-13T07:12:19.951Z,8.10
2019-03-13T07:14:53.931Z,8.00
2019-03-13T07:17:27.879Z,8.10
2019-03-13T07:20:01.630Z,8.10
2019-03-13T07:22:34.357Z,8.10
2019-03-13T07:25:07.750Z,8.10
2019-03-13T07:27:40.427Z,8.20
2019-03-13T07:30:13.253Z,8.20
2019-03-13T07:32:46.116Z,8.30
2019-03-13T07:35:18.755Z,8.40
2019-03-13T07:37:51.527Z,8.40
2019-03-13T07:40:24.198Z,8.50
2019-03-13T07:42:56.846Z,8.50
2019-03-13T07:45:29.513Z,8.60
2019-03-13T07:48:02.991Z,8.60
2019-03-13T07:50:35.749Z,8.60
2019-03-13T07:53:08.444Z,8.60
2019-03-13T07:55:41.086Z,8.70
2019-03-13T07:58:13.734Z,8.80
2019-03-13T08:00:46.379Z,8.80
2019-03-13T08:03:19.078Z,8.90
2019-03-13T08:05:51.749Z,9.00
2019-03-13T08:08:24.396Z,9.00
2019-03-13T08:10:57.036Z,9.10
2019-03-13T08:13:29.704Z,9.00
2019-03-13T08:16:02.333Z,9.00
2019-03-13T08:18:35.105Z,8.90
2019-03-13T08:21:07.749Z,8.90
2019-03-13T08:23:40.450Z,8.80
2019-03-13T08:26:13.098Z,8.70
2019-03-13T08:28:45.771Z,8.80
2019-03-13T08:31:18.457Z,8.90
2019-03-13T08:33:51.147Z,8.90
2019-03-13T08:36:23.822Z,8.90
2019-03-13T08:38:56.477Z,8.90
2019-03-13T08:41:31.543Z,8.90
2019-03-13T08:44:04.255Z,8.80
2019-03-13T08:46:36.879Z,8.70
2019-03-13T08:49:09.540Z,8.70
2019-03-13T08:51:42.171Z,8.70
2019-03-13T08:54:14.847Z,8.70
2019-03-13T08:56:47.511Z,8.70
2019-03-13T08:59:23.353Z,8.70
2019-03-13T09:01:54.534Z,8.70
2019-03-13T09:04:27.188Z,8.70
2019-03-13T09:06:59.838Z,8.70
2019-03-13T09:09:32.511Z,8.70
2019-03-13T09:12:05.150Z,8.70
2019-03-13T09:14:37.820Z,8.70
2019-03-13T09:17:10.473Z,8.70
2019-03-13T09:19:43.133Z,8.70
2019-03-13T09:22:15.766Z,8.70
2019-03-13T09:24:48.421Z,8.70
2019-03-13T09:27:21.175Z,8.70
2019-03-13T09:29:53.857Z,8.70
2019-03-13T09:32:26.578Z,8.70
2019-03-13T09:38:14.710Z,8.70
2019-03-13T09:40:47.708Z,8.80
2019-03-13T09:43:20.360Z,8.80
2019-03-13T09:45:53.043Z,8.80
2019-03-13T09:48:25.700Z,8.80
2019-03-13T09:50:58.388Z,9.10
2019-03-13T09:53:31.034Z,9.20
2019-03-13T09:56:03.715Z,9.40
2019-03-13T09:58:36.367Z,9.40
2019-03-13T10:01:09.034Z,9.40
2019-03-13T10:03:41.757Z,9.40
2019-03-13T10:06:14.421Z,9.50
2019-03-13T10:08:47.059Z,9.50
2019-03-13T10:11:19.706Z,9.50
2019-03-13T10:13:52.391Z,9.40
2019-03-13T10:16:25.071Z,9.40
2019-03-13T10:18:58.689Z,9.40
2019-03-13T10:21:31.409Z,9.40
2019-03-13T10:24:04.065Z,9.40
2019-03-13T10:26:36.833Z,9.50
2019-03-13T10:29:09.499Z,9.60
2019-03-13T10:31:42.176Z,9.70
2019-03-13T10:34:14.829Z,9.70
2019-03-13T10:36:50.382Z,9.50
2019-03-13T10:39:22.143Z,9.50
2019-03-13T10:41:54.802Z,9.30
2019-03-13T10:44:27.563Z,9.20
2019-03-13T10:47:00.233Z,9.10
2019-03-13T10:49:32.877Z,8.90
2019-03-13T10:52:05.567Z,8.90
2019-03-13T10:54:38.321Z,8.80
2019-03-13T10:57:10.986Z,8.80
2019-03-13T10:59:43.656Z,8.80
2019-03-13T11:02:16.379Z,8.80
2019-03-13T11:04:49.017Z,8.80
2019-03-13T11:07:21.721Z,8.90
2019-03-13T11:09:54.368Z,9.00
2019-03-13T11:12:27.033Z,9.00
2019-03-13T11:14:59.707Z,8.90
2019-03-13T11:17:32.553Z,8.90
2019-03-13T11:20:05.362Z,8.90
2019-03-13T11:22:38.068Z,8.80
2019-03-13T11:25:10.730Z,8.80
2019-03-13T11:27:43.420Z,8.80
2019-03-13T11:30:16.062Z,8.70
2019-03-13T11:32:48.782Z,8.80
2019-03-13T11:35:21.481Z,8.80
2019-03-13T11:37:54.202Z,8.80
2019-03-13T11:40:26.857Z,8.80
2019-03-13T11:42:59.521Z,8.90
2019-03-13T11:45:32.180Z,8.90
2019-03-13T11:48:04.844Z,9.00
2019-03-13T11:50:37.556Z,9.10
2019-03-13T11:53:10.217Z,9.10
2019-03-13T11:55:44.711Z,9.20
2019-03-13T11:58:17.270Z,9.20
2019-03-13T12:00:49.921Z,9.20
2019-03-13T12:03:22.571Z,9.20
2019-03-13T12:05:55.228Z,9.20
2019-03-13T12:08:27.879Z,9.30
2019-03-13T12:11:00.550Z,9.20
2019-03-13T12:13:33.222Z,9.20
2019-03-13T12:16:05.866Z,9.30
2019-03-13T12:18:38.534Z,9.20
2019-03-13T12:21:11.186Z,9.20
2019-03-13T12:23:43.840Z,9.20
2019-03-13T12:26:16.485Z,9.20
2019-03-13T12:28:49.136Z,9.10
2019-03-13T12:31:21.785Z,9.20
2019-03-13T12:33:54.462Z,9.20
2019-03-13T12:36:27.123Z,9.20
2019-03-13T12:38:59.819Z,9.30
2019-03-13T12:41:32.465Z,9.40
2019-03-13T12:44:05.146Z,9.50
2019-03-13T12:46:37.770Z,9.50
2019-03-13T12:49:10.435Z,9.70
2019-03-13T12:51:43.085Z,9.70
2019-03-13T12:54:15.769Z,9.90
2019-03-13T12:56:48.411Z,10.00
2019-03-13T12:59:21.115Z,10.00
2019-03-13T13:01:53.775Z,10.00
2019-03-13T13:04:26.462Z,10.00
2019-03-13T13:06:59.216Z,9.90
2019-03-13T13:09:31.894Z,9.80
2019-03-13T13:12:04.651Z,9.90
2019-03-13T13:14:37.313Z,9.80
2019-03-13T13:17:10.027Z,9.70
2019-03-13T13:19:42.705Z,9.60
2019-03-13T13:22:15.353Z,9.50
2019-03-13T13:24:48.025Z,9.50
2019-03-13T13:27:20.758Z,9.60
2019-03-13T13:29:53.502Z,9.50
2019-03-13T13:32:26.138Z,9.60
2019-03-13T13:35:20.057Z,9.50
2019-03-13T13:37:52.837Z,9.50
2019-03-13T13:40:25.539Z,9.40
2019-03-13T13:42:58.220Z,9.40
2019-03-13T13:45:53.850Z,9.30
2019-03-13T13:51:53.726Z,9.40
2019-03-13T13:54:26.369Z,9.70
2019-03-13T13:56:59.109Z,9.80
2019-03-13T13:59:31.734Z,9.90
2019-03-13T14:02:04.429Z,9.90
2019-03-13T14:04:37.112Z,9.90
2019-03-13T14:07:10.067Z,10.00
2019-03-13T14:09:42.745Z,10.20
2019-03-13T14:12:15.437Z,10.20
2019-03-13T14:14:48.069Z,10.10
2019-03-13T14:17:20.730Z,10.20
2019-03-13T14:19:53.376Z,10.20
2019-03-13T14:22:26.039Z,10.20
2019-03-13T14:24:58.687Z,10.10
2019-03-13T14:27:31.368Z,10.00
2019-03-13T14:30:04.617Z,10.00
2019-03-13T14:32:37.270Z,9.80
2019-03-13T14:35:29.483Z,9.80
2019-03-13T14:38:02.142Z,10.00
2019-03-13T14:40:34.827Z,10.10
2019-03-13T14:43:07.526Z,10.20
2019-03-13T14:45:40.256Z,10.20
2019-03-13T14:48:12.961Z,10.20
2019-03-13T14:50:45.613Z,10.10
2019-03-13T14:53:18.268Z,10.10
2019-03-13T14:55:50.898Z,9.90
2019-03-13T14:58:23.566Z,9.80
2019-03-13T15:00:56.220Z,9.70
2019-03-13T15:03:28.887Z,9.70
2019-03-13T15:06:02.350Z,9.60
2019-03-13T15:08:35.019Z,9.50
2019-03-13T15:11:07.697Z,9.40
2019-03-13T15:13:40.363Z,9.30
2019-03-13T15:16:13.007Z,9.20
2019-03-13T15:18:45.683Z,9.10
2019-03-13T15:21:18.330Z,9.10
2019-03-13T15:23:50.983Z,8.90
2019-03-13T15:26:23.915Z,8.70
2019-03-13T15:28:56.939Z,8.60
2019-03-13T15:31:29.602Z,8.40
2019-03-13T15:40:31.986Z,8.30
2019-03-13T15:43:04.624Z,8.40
2019-03-13T15:45:37.309Z,8.30
2019-03-13T15:48:10.056Z,8.30
2019-03-13T15:50:42.736Z,8.30
2019-03-13T15:53:15.390Z,8.40
2019-03-13T15:55:48.191Z,8.40
2019-03-13T15:58:20.839Z,8.40
2019-03-13T16:00:53.512Z,8.40
2019-03-13T16:03:26.159Z,8.50
2019-03-13T16:05:58.815Z,8.50
2019-03-13T16:08:31.480Z,8.50
2019-03-13T16:11:04.175Z,8.60
2019-03-13T16:13:36.828Z,8.60
2019-03-13T16:16:09.496Z,8.50
2019-03-13T16:18:42.137Z,8.50
2019-03-13T16:21:14.812Z,8.50
2019-03-13T16:23:47.467Z,8.60
2019-03-13T16:26:20.155Z,8.60
2019-03-13T16:28:52.781Z,7.90
2019-03-13T16:31:25.439Z,6.70
2019-03-13T16:33:59.192Z,6.10
2019-03-13T16:36:31.878Z,5.80
2019-03-13T16:39:05.397Z,5.80
2019-03-13T16:41:38.090Z,5.80
2019-03-13T16:44:10.743Z,5.80
2019-03-13T16:46:43.433Z,5.80
2019-03-13T16:49:16.374Z,5.80
2019-03-13T16:51:49.119Z,5.80
2019-03-13T16:54:21.762Z,5.80
2019-03-13T16:56:54.429Z,5.80
2019-03-13T16:59:27.083Z,5.80
2019-03-13T17:01:59.742Z,5.80
2019-03-13T17:04:32.413Z,5.80
2019-03-13T17:07:05.221Z,5.90
2019-03-13T17:09:37.851Z,6.00
2019-03-13T17:12:10.539Z,6.00
2019-03-13T17:14:43.276Z,6.10
2019-03-13T17:17:16.023Z,6.20
2019-03-13T17:19:49.126Z,6.30
2019-03-13T17:22:21.835Z,6.40
2019-03-13T17:24:54.498Z,6.50
2019-03-13T17:27:27.268Z,6.50
2019-03-13T17:30:00.765Z,6.50
2019-03-13T17:32:33.431Z,6.40
2019-03-13T17:35:06.070Z,6.40
2019-03-13T17:37:38.722Z,6.40
2019-03-13T17:40:13.494Z,6.40
2019-03-13T17:42:46.256Z,6.50
2019-03-13T17:45:19.367Z,6.50
2019-03-13T17:47:52.022Z,6.50
2019-03-13T17:50:24.671Z,6.50
2019-03-13T17:52:57.324Z,6.60
2019-03-13T17:55:30.040Z,6.60
2019-03-13T17:58:02.703Z,6.60
2019-03-13T18:00:35.474Z,6.60
2019-03-13T18:03:08.166Z,6.70
2019-03-13T18:05:40.832Z,6.70
2019-03-13T18:08:13.509Z,6.70
2019-03-13T18:10:46.205Z,6.80
2019-03-13T18:13:18.892Z,6.80
2019-03-13T18:15:51.562Z,6.80
2019-03-13T18:18:24.266Z,6.90
2019-03-13T18:20:56.906Z,6.90
2019-03-13T18:26:02.034Z,7.10
2019-03-13T18:28:34.704Z,7.10
2019-03-13T18:31:07.339Z,7.10
2019-03-13T18:33:39.994Z,7.00
2019-03-13T18:36:14.252Z,7.00
2019-03-13T18:38:47.243Z,7.10
2019-03-13T18:41:22.949Z,7.10
2019-03-13T18:43:54.264Z,7.00
2019-03-13T18:46:26.906Z,7.00
2019-03-13T18:48:59.583Z,6.90
2019-03-13T18:51:32.240Z,6.90
2019-03-13T18:54:04.906Z,6.80
2019-03-13T18:56:38.654Z,6.80
2019-03-13T19:01:43.884Z,6.80
2019-03-13T19:04:16.538Z,6.80
2019-03-13T19:06:49.203Z,6.70
2019-03-13T19:09:21.878Z,6.70
2019-03-13T19:11:54.521Z,6.70
2019-03-13T19:14:27.195Z,6.60
2019-03-13T19:16:59.810Z,6.60
2019-03-13T19:19:32.470Z,6.60
2019-03-13T19:22:05.138Z,6.60
2019-03-13T19:24:37.790Z,6.70
2019-03-13T19:27:10.445Z,6.80
2019-03-13T19:29:43.138Z,6.90
2019-03-13T19:32:15.832Z,6.90
2019-03-13T19:34:48.853Z,7.00
2019-03-13T19:37:21.554Z,7.00
2019-03-13T19:39:54.361Z,7.00
2019-03-13T19:42:27.018Z,7.00
2019-03-13T19:44:59.690Z,7.00
2019-03-13T19:47:32.331Z,7.00
2019-03-13T19:50:05.218Z,7.00
2019-03-13T19:52:37.858Z,7.00
2019-03-13T19:55:11.414Z,6.90
2019-03-13T19:57:44.081Z,6.80
2019-03-13T20:00:17.964Z,6.70
2019-03-13T20:02:59.889Z,6.70
2019-03-13T20:05:25.022Z,6.70
2019-03-13T20:07:57.826Z,6.60
2019-03-13T20:10:30.498Z,6.60
2019-03-13T20:13:03.162Z,6.60
2019-03-13T20:15:35.822Z,6.60
2019-03-13T20:18:08.472Z,6.70
2019-03-13T20:20:41.131Z,6.70
2019-03-13T20:23:14.004Z,6.70
2019-03-13T20:25:46.667Z,6.70
2019-03-13T20:28:19.321Z,6.80
2019-03-13T20:30:51.963Z,6.70
2019-03-13T20:33:24.614Z,6.70
2019-03-13T20:35:57.272Z,6.70
2019-03-13T20:38:29.919Z,6.70
2019-03-13T20:41:02.595Z,6.60
2019-03-13T20:43:35.275Z,6.60
2019-03-13T20:46:07.945Z,6.70
2019-03-13T20:48:40.629Z,6.70
2019-03-13T20:51:13.280Z,6.70
2019-03-13T20:53:45.947Z,6.80
2019-03-13T20:56:18.614Z,6.80
2019-03-13T20:58:51.266Z,6.90
2019-03-13T21:01:23.925Z,7.00
2019-03-13T21:03:56.558Z,6.90
2019-03-13T21:06:29.218Z,7.00
2019-03-13T21:09:01.866Z,7.00
2019-03-13T21:11:34.513Z,6.90
2019-03-13T21:14:07.166Z,6.90
2019-03-13T21:16:39.846Z,6.90
2019-03-13T21:19:12.490Z,6.80
2019-03-13T21:21:45.184Z,6.80
2019-03-13T21:24:17.843Z,6.60
2019-03-13T21:26:50.516Z,6.60
2019-03-13T21:29:23.162Z,6.50
2019-03-13T21:31:55.822Z,6.50
2019-03-13T21:34:28.598Z,6.50
2019-03-13T21:37:01.329Z,6.60
2019-03-13T21:39:33.994Z,6.60
2019-03-13T21:42:06.638Z,6.50
2019-03-13T21:44:39.277Z,6.50
2019-03-13T21:47:11.922Z,6.50
2019-03-13T21:49:44.561Z,6.50
2019-03-13T21:52:17.214Z,6.40
2019-03-13T21:54:52.078Z,6.40
2019-03-13T21:57:24.250Z,6.30
2019-03-13T21:59:56.891Z,6.30
2019-03-13T22:02:33.145Z,6.30
2019-03-13T22:05:04.171Z,6.30
2019-03-13T22:07:36.943Z,6.30
2019-03-13T22:10:09.647Z,6.30
2019-03-13T22:12:42.306Z,6.30
2019-03-13T22:15:15.079Z,6.30
2019-03-13T22:17:47.717Z,6.40
2019-03-13T22:20:20.362Z,6.50
2019-03-13T22:22:53.017Z,6.50
2019-03-13T22:25:25.645Z,6.50
2019-03-13T22:27:58.308Z,6.50
2019-03-13T22:30:30.934Z,6.50
2019-03-13T22:33:03.607Z,6.60
2019-03-13T22:35:36.234Z,6.60
2019-03-13T22:38:08.888Z,6.60
2019-03-13T22:40:41.514Z,6.70
2019-03-13T22:43:15.438Z,6.80
2019-03-13T22:45:48.079Z,6.80
2019-03-13T22:48:20.731Z,6.80
2019-03-13T22:50:53.376Z,6.80
2019-03-13T22:53:26.026Z,6.80
2019-03-13T22:55:58.674Z,6.80
2019-03-13T22:58:31.310Z,6.80
2019-03-13T23:01:04.422Z,6.80
2019-03-13T23:03:40.305Z,6.80
2019-03-13T23:06:11.437Z,6.80
2019-03-13T23:08:44.112Z,6.80
2019-03-13T23:11:16.754Z,6.80
2019-03-13T23:13:49.408Z,6.70
2019-03-13T23:16:23.937Z,6.70
2019-03-13T23:18:56.429Z,6.60
2019-03-13T23:21:29.112Z,6.60
2019-03-13T23:24:01.783Z,6.60
2019-03-13T23:26:34.424Z,6.60
2019-03-13T23:29:07.097Z,6.70
2019-03-13T23:31:39.738Z,6.70
2019-03-13T23:34:12.409Z,6.70
2019-03-13T23:36:45.017Z,6.80
2019-03-13T23:39:17.664Z,6.70
2019-03-13T23:41:50.295Z,6.70
2019-03-13T23:44:22.951Z,6.70
2019-03-13T23:46:55.595Z,6.70
2019-03-13T23:49:28.242Z,6.70
2019-03-13T23:52:02.947Z,6.70
2019-03-13T23:54:35.254Z,6.70
2019-03-13T23:57:07.899Z,6.70
2019-03-13T23:59:40.553Z,6.80
